Time;durP1;ratioP1;P1;durP2;ratioP2;P2;SDS_P1;SDS_P2;PMS_P1;PMS_P2;Temp;Humidity;BMP_temperature;BMP_pressure;BME280_temperature;BME280_humidity;BME280_pressure;Samples;Min_cycle;Max_cycle;Signal;HPM_P1;HPM_P2
2022/11/26 00:03:34;;;;;;;12.10;9.15;;;10.40;86.00;;;;;;10757285;33;20413;-73
2022/11/26 00:09:37;;;;;;;7.53;5.97;;;10.30;85.80;;;;;;10744513;32;20055;-73
2022/11/26 00:15:40;;;;;;;9.35;6.55;;;10.20;85.90;;;;;;10757185;33;20021;-73
2022/11/26 00:21:42;;;;;;;11.40;8.80;;;10.20;85.80;;;;;;10756829;33;20032;-74
2022/11/26 00:27:44;;;;;;;12.15;7.87;;;10.30;86.20;;;;;;10753572;33;20033;-73
2022/11/26 00:33:46;;;;;;;9.82;6.75;;;10.20;86.00;;;;;;10752876;33;20060;-73
2022/11/26 00:39:49;;;;;;;8.57;6.45;;;10.00;86.30;;;;;;10756247;33;20041;-73
2022/11/26 00:45:51;;;;;;;9.10;7.30;;;10.10;86.30;;;;;;10755177;32;20024;-73
2022/11/26 00:51:53;;;;;;;8.75;4.95;;;10.10;86.00;;;;;;10756023;33;20055;-73
2022/11/26 00:57:56;;;;;;;11.32;7.15;;;10.10;85.90;;;;;;10755911;33;20017;-73
2022/11/26 01:03:58;;;;;;;8.38;6.85;;;10.00;85.70;;;;;;10737978;33;20033;-73
2022/11/26 01:10:00;;;;;;;9.65;5.68;;;10.00;85.50;;;;;;10755475;32;20028;-73
2022/11/26 01:16:14;;;;;;;11.20;7.82;;;9.90;85.50;;;;;;10754855;33;20063;-73
2022/11/26 01:22:22;;;;;;;9.98;6.57;;;9.80;85.60;;;;;;10755099;33;20020;-74
2022/11/26 01:28:25;;;;;;;9.05;6.35;;;9.90;85.70;;;;;;10741925;33;20025;-73
2022/11/26 01:34:27;;;;;;;8.55;5.95;;;9.90;85.50;;;;;;10754778;33;20029;-73
2022/11/26 01:40:54;;;;;;;9.00;5.95;;;9.90;85.30;;;;;;10754218;33;20071;-73
2022/11/26 01:46:58;;;;;;;8.43;5.55;;;9.90;85.30;;;;;;10742234;33;20423;-73
2022/11/26 01:53:10;;;;;;;10.23;6.32;;;9.80;85.40;;;;;;10754273;33;20401;-73
2022/11/26 01:59:27;;;;;;;7.93;4.68;;;9.80;85.30;;;;;;10754211;33;20411;-73
2022/11/26 02:05:32;;;;;;;8.13;6.55;;;9.80;85.30;;;;;;10753827;33;20054;-74
2022/11/26 02:11:34;;;;;;;8.13;5.75;;;9.70;85.20;;;;;;10753757;32;20055;-73
2022/11/26 02:17:51;;;;;;;7.82;5.53;;;9.70;85.10;;;;;;10752832;32;20068;-73
2022/11/26 02:24:17;;;;;;;8.35;6.62;;;9.80;85.10;;;;;;10736407;32;20036;-73
2022/11/26 02:30:19;;;;;;;10.43;5.07;;;9.80;85.10;;;;;;10753209;33;20334;-73
2022/11/26 02:36:30;;;;;;;8.40;5.90;;;9.80;85.10;;;;;;10753181;32;20024;-73
2022/11/26 02:42:34;;;;;;;6.87;5.85;;;9.90;85.40;;;;;;10739929;33;20389;-74
2022/11/26 02:48:41;;;;;;;6.62;4.80;;;9.90;85.50;;;;;;10752619;33;20043;-73
2022/11/26 02:54:47;;;;;;;8.35;4.97;;;9.90;85.50;;;;;;10752627;33;20043;-73
2022/11/26 03:00:49;;;;;;;9.18;5.85;;;9.80;85.40;;;;;;10752494;33;20032;-73
2022/11/26 03:06:55;;;;;;;6.53;4.30;;;9.80;85.50;;;;;;10752260;33;20435;-73
2022/11/26 03:12:57;;;;;;;6.50;4.47;;;9.80;85.70;;;;;;10752085;33;20032;-74
2022/11/26 03:19:00;;;;;;;9.23;4.95;;;9.70;85.60;;;;;;10750370;32;20029;-73
2022/11/26 03:25:04;;;;;;;7.28;5.53;;;9.70;85.60;;;;;;10751728;33;20318;-76
2022/11/26 03:31:06;;;;;;;7.22;4.87;;;9.70;85.60;;;;;;10748408;33;20037;-76
2022/11/26 03:37:11;;;;;;;7.22;4.87;;;9.70;85.60;;;;;;10751259;33;20036;-75
2022/11/26 03:43:13;;;;;;;9.57;6.37;;;9.40;85.90;;;;;;10751235;33;20033;-76
2022/11/26 03:49:15;;;;;;;8.57;5.57;;;9.50;86.00;;;;;;10747000;33;20071;-76
2022/11/26 03:55:17;;;;;;;6.75;4.62;;;9.50;85.80;;;;;;10750990;33;20405;-76
2022/11/26 04:01:20;;;;;;;7.28;4.72;;;9.40;85.80;;;;;;10750853;32;20032;-75
2022/11/26 04:07:22;;;;;;;7.72;3.92;;;9.50;85.80;;;;;;10750597;33;20036;-76
2022/11/26 04:13:25;;;;;;;9.52;6.10;;;9.30;85.90;;;;;;10750522;33;20071;-75
2022/11/26 04:19:35;;;;;;;7.72;5.47;;;9.40;86.30;;;;;;10750195;33;20037;-75
2022/11/26 04:25:37;;;;;;;8.73;5.20;;;9.50;86.30;;;;;;10750038;33;20047;-75
2022/11/26 04:31:39;;;;;;;7.12;5.00;;;9.60;86.40;;;;;;10747186;33;20079;-75
2022/11/26 04:37:41;;;;;;;5.72;3.85;;;9.60;86.70;;;;;;10737072;33;20324;-76
2022/11/26 04:43:43;;;;;;;6.57;3.97;;;9.60;87.00;;;;;;10742200;33;20063;-76
2022/11/26 04:49:45;;;;;;;5.15;3.50;;;9.50;87.20;;;;;;10742981;33;20328;-76
2022/11/26 04:55:48;;;;;;;8.38;5.07;;;9.60;87.40;;;;;;10752829;33;20029;-75
2022/11/26 05:01:51;;;;;;;7.47;4.18;;;9.60;87.10;;;;;;10755566;32;20064;-76
2022/11/26 05:07:53;;;;;;;4.90;3.30;;;9.50;86.80;;;;;;10742405;33;20059;-76
2022/11/26 05:13:55;;;;;;;4.43;3.00;;;9.40;86.70;;;;;;10755099;33;20036;-76
2022/11/26 05:19:57;;;;;;;7.90;3.95;;;9.40;86.50;;;;;;10741972;33;20028;-76
2022/11/26 05:25:59;;;;;;;5.72;3.35;;;9.40;86.40;;;;;;10752836;33;20037;-76
2022/11/26 05:32:01;;;;;;;6.50;3.87;;;9.40;86.50;;;;;;10754895;33;20060;-76
2022/11/26 05:38:03;;;;;;;6.87;3.83;;;9.40;86.80;;;;;;10741496;33;20047;-76
2022/11/26 05:44:05;;;;;;;7.53;4.95;;;9.40;87.10;;;;;;10741500;32;20056;-76
2022/11/26 05:50:09;;;;;;;10.18;5.12;;;9.50;87.30;;;;;;10749977;33;20021;-75
2022/11/26 05:56:11;;;;;;;5.35;3.95;;;9.50;87.20;;;;;;10737124;32;20032;-76
2022/11/26 06:02:13;;;;;;;5.72;4.03;;;9.40;87.10;;;;;;10753754;33;20043;-76
2022/11/26 06:08:15;;;;;;;6.72;4.55;;;9.40;87.00;;;;;;10740900;32;20033;-75
2022/11/26 06:14:17;;;;;;;7.85;4.90;;;9.40;86.90;;;;;;10753548;33;20020;-76
2022/11/26 06:20:19;;;;;;;7.15;4.07;;;9.30;86.80;;;;;;10740224;33;20114;-76
2022/11/26 06:26:21;;;;;;;7.85;4.57;;;9.20;86.90;;;;;;10753054;32;20055;-75
2022/11/26 06:32:24;;;;;;;9.30;5.60;;;9.20;86.90;;;;;;10739573;32;20423;-73
2022/11/26 06:38:26;;;;;;;8.32;4.37;;;9.20;87.00;;;;;;10752850;33;20025;-73
2022/11/26 06:44:28;;;;;;;8.27;4.45;;;9.20;86.90;;;;;;10752703;33;20321;-73
2022/11/26 06:50:30;;;;;;;6.97;4.47;;;9.20;87.00;;;;;;10448835;27;15508516;-75
2022/11/26 06:56:34;;;;;;;6.78;3.62;;;9.30;87.00;;;;;;10939022;32;20405;-75
2022/11/26 07:02:38;;;;;;;5.53;3.62;;;9.40;87.00;;;;;;10938318;32;20039;-75
2022/11/26 07:08:40;;;;;;;6.15;3.85;;;9.50;87.10;;;;;;10922240;32;20510;-75
2022/11/26 07:14:42;;;;;;;4.18;2.65;;;9.50;87.00;;;;;;10937436;32;20065;-75
2022/11/26 07:20:44;;;;;;;5.47;2.90;;;9.50;86.90;;;;;;10855329;32;20054;-75
2022/11/26 07:26:46;;;;;;;4.30;2.67;;;9.50;87.10;;;;;;10848436;32;20050;-75
2022/11/26 07:32:48;;;;;;;2.60;1.73;;;9.50;87.00;;;;;;10861637;32;20024;-75
2022/11/26 07:38:55;;;;;;;3.92;2.25;;;9.50;87.00;;;;;;10857356;32;20035;-75
2022/11/26 07:44:57;;;;;;;4.97;3.10;;;9.50;87.00;;;;;;10861420;32;20019;-75
2022/11/26 07:51:00;;;;;;;6.05;3.75;;;9.50;87.00;;;;;;10858882;32;20028;-75
2022/11/26 07:57:03;;;;;;;6.60;3.47;;;9.50;87.00;;;;;;10858737;32;20377;-75
2022/11/26 08:03:05;;;;;;;6.00;3.78;;;9.50;87.00;;;;;;10856234;32;20434;-75
2022/11/26 08:09:07;;;;;;;6.72;3.72;;;9.40;87.00;;;;;;10847621;32;20016;-75
2022/11/26 08:15:09;;;;;;;5.95;4.03;;;9.40;87.10;;;;;;10863510;32;20019;-75
2022/11/26 08:21:27;;;;;;;7.07;4.18;;;9.30;87.40;;;;;;10866847;32;20055;-75
2022/11/26 08:27:31;;;;;;;5.22;3.83;;;9.30;87.50;;;;;;10866502;32;20351;-75
2022/11/26 08:33:34;;;;;;;6.03;3.50;;;9.30;87.70;;;;;;10864953;32;20031;-75
2022/11/26 08:39:36;;;;;;;3.95;3.33;;;9.40;87.90;;;;;;10866382;32;20391;-75
2022/11/26 08:45:38;;;;;;;4.60;3.20;;;9.40;87.80;;;;;;10866537;32;20077;-75
2022/11/26 08:51:40;;;;;;;5.35;3.87;;;9.50;87.70;;;;;;10852997;32;20019;-75
2022/11/26 08:58:06;;;;;;;5.07;2.60;;;9.60;87.90;;;;;;10865719;32;20036;-75
2022/11/26 09:04:08;;;;;;;4.18;2.78;;;9.70;87.90;;;;;;10865611;32;20032;-75
2022/11/26 09:10:12;;;;;;;5.93;3.58;;;9.80;88.00;;;;;;10865652;32;20023;-75
2022/11/26 09:16:25;;;;;;;6.22;4.25;;;10.00;87.70;;;;;;10861589;32;20071;-74
2022/11/26 09:22:27;;;;;;;4.95;3.92;;;10.10;87.70;;;;;;10865222;32;20391;-75
2022/11/26 09:28:30;;;;;;;5.80;3.62;;;10.30;87.60;;;;;;10862807;32;20050;-74
2022/11/26 09:34:32;;;;;;;10.75;4.78;;;10.40;87.40;;;;;;10864777;32;20430;-74
2022/11/26 09:40:59;;;;;;;4.28;2.55;;;10.50;87.10;;;;;;10863238;32;20027;-72
2022/11/26 09:47:18;;;;;;;4.50;2.90;;;10.70;87.20;;;;;;10864815;32;20311;-73
2022/11/26 09:53:24;;;;;;;6.30;3.50;;;10.80;86.50;;;;;;10860592;32;20054;-72
2022/11/26 09:59:29;;;;;;;2.92;2.12;;;10.90;86.20;;;;;;10864327;32;20057;-73
2022/11/26 10:06:10;;;;;;;6.82;2.58;;;11.10;85.80;;;;;;10915320;32;20027;-73
2022/11/26 10:12:16;;;;;;;5.57;2.90;;;11.30;86.00;;;;;;10863826;32;20031;-73
2022/11/26 10:18:56;;;;;;;6.70;2.25;;;11.40;86.40;;;;;;10863918;32;20024;-73
2022/11/26 10:25:00;;;;;;;4.45;2.30;;;11.50;85.60;;;;;;10914885;32;20046;-73
2022/11/26 10:31:23;;;;;;;4.65;2.67;;;11.70;85.30;;;;;;10863659;32;20093;-73
2022/11/26 10:37:27;;;;;;;3.55;2.20;;;11.80;85.20;;;;;;10862330;32;20339;-73
2022/11/26 10:43:31;;;;;;;2.75;1.62;;;12.00;84.80;;;;;;10863053;32;20031;-73
2022/11/26 10:49:33;;;;;;;3.20;1.85;;;12.20;84.20;;;;;;10813507;32;20059;-73
2022/11/26 10:55:42;;;;;;;2.62;2.15;;;12.30;83.50;;;;;;10808407;33;20020;-72
2022/11/26 11:01:45;;;;;;;5.12;3.25;;;12.60;82.70;;;;;;10825759;33;20433;-74
2022/11/26 11:08:04;;;;;;;3.65;2.35;;;12.80;81.70;;;;;;10825221;33;20077;-74
2022/11/26 11:14:35;;;;;;;5.35;3.25;;;12.90;81.50;;;;;;10811781;33;20020;-74
2022/11/26 11:20:41;;;;;;;4.10;1.77;;;13.00;80.40;;;;;;10824804;33;20336;-74
2022/11/26 11:26:45;;;;;;;4.90;2.03;;;13.10;80.10;;;;;;10811693;33;20051;-74
2022/11/26 11:32:49;;;;;;;7.22;2.60;;;13.20;79.70;;;;;;10824790;33;20293;-74
2022/11/26 11:39:01;;;;;;;3.22;2.12;;;13.10;80.30;;;;;;10811577;33;20422;-74
2022/11/26 11:45:04;;;;;;;7.90;4.05;;;13.00;79.10;;;;;;10832741;32;20035;-74
2022/11/26 11:51:28;;;;;;;8.95;3.60;;;12.90;78.10;;;;;;11015408;32;20022;-74
2022/11/26 11:57:48;;;;;;;6.30;3.45;;;12.90;78.00;;;;;;11014520;32;20370;-74
2022/11/26 12:04:17;;;;;;;5.35;2.25;;;13.00;78.50;;;;;;10982472;32;20053;-74
2022/11/26 12:10:49;;;;;;;2.33;1.67;;;13.10;77.20;;;;;;10982416;32;20026;-74
2022/11/26 12:17:07;;;;;;;2.10;1.33;;;13.20;77.10;;;;;;10986373;32;20339;-74
2022/11/26 12:23:20;;;;;;;2.67;1.37;;;13.20;77.20;;;;;;10981858;32;20034;-74
2022/11/26 12:29:37;;;;;;;1.75;1.25;;;13.20;77.10;;;;;;10982533;32;20054;-73
2022/11/26 12:35:45;;;;;;;2.50;1.42;;;13.20;76.60;;;;;;10972383;32;20022;-73
2022/11/26 12:42:10;;;;;;;2.08;1.40;;;13.20;76.80;;;;;;10985628;32;20362;-73
2022/11/26 12:48:51;;;;;;;3.05;1.40;;;13.30;76.80;;;;;;10784139;32;20067;-72
2022/11/26 12:55:16;;;;;;;7.07;1.40;;;13.40;75.50;;;;;;10754560;33;20052;-72
2022/11/26 13:01:19;;;;;;;4.10;1.92;;;13.40;75.30;;;;;;10744496;33;20044;-72
2022/11/26 13:07:40;;;;;;;1.77;1.55;;;13.50;74.60;;;;;;10754525;33;20071;-72
2022/11/26 13:14:00;;;;;;;2.22;1.17;;;13.60;74.00;;;;;;10756892;33;20028;-72
2022/11/26 13:20:34;;;;;;;1.50;1.00;;;13.70;72.90;;;;;;10756925;33;20138;-72
2022/11/26 13:27:06;;;;;;;1.42;1.15;;;13.80;72.10;;;;;;10757617;33;20025;-72
2022/11/26 13:40:36;;;;;;;3.20;1.70;;;13.70;73.20;;;;;;10720688;33;20165;-73
2022/11/26 13:46:49;;;;;;;4.37;2.33;;;13.70;74.00;;;;;;10720180;33;20052;-72
2022/11/26 13:52:57;;;;;;;4.72;2.45;;;13.70;73.80;;;;;;10724814;33;20337;-73
2022/11/26 13:59:07;;;;;;;3.15;1.48;;;13.80;73.10;;;;;;10748212;32;20032;-72
2022/11/26 14:05:15;;;;;;;4.05;1.40;;;13.90;73.10;;;;;;10861261;32;20035;-73
2022/11/26 14:11:35;;;;;;;2.17;1.05;;;14.20;73.00;;;;;;10865386;32;20383;-73
2022/11/26 14:17:55;;;;;;;2.45;1.45;;;14.50;72.80;;;;;;10863943;32;20028;-74
2022/11/26 14:24:04;;;;;;;2.70;1.40;;;14.70;73.10;;;;;;10863476;32;20054;-74
2022/11/26 14:30:40;;;;;;;2.33;1.80;;;14.70;73.50;;;;;;10863622;32;20038;-74
2022/11/26 14:37:11;;;;;;;2.75;1.58;;;14.50;74.80;;;;;;10863528;32;20089;-73
2022/11/26 14:43:21;;;;;;;2.78;1.50;;;14.10;75.30;;;;;;10915037;32;20063;-73
2022/11/26 14:49:54;;;;;;;2.95;1.75;;;13.70;76.50;;;;;;10951416;26;20520;-72
2022/11/26 14:55:58;;;;;;;1.15;1.05;;;13.50;77.40;;;;;;10967442;32;20041;-72
2022/11/26 15:02:18;;;;;;;1.85;1.27;;;13.30;78.00;;;;;;10967159;32;20025;-73
2022/11/26 15:08:24;;;;;;;2.33;1.08;;;13.50;78.40;;;;;;10980589;32;20049;-73
2022/11/26 15:14:59;;;;;;;1.92;1.15;;;13.60;78.60;;;;;;10980027;32;20019;-73
2022/11/26 15:21:18;;;;;;;1.15;0.73;;;13.20;79.20;;;;;;10980129;32;20031;-73
2022/11/26 15:27:58;;;;;;;0.98;0.68;;;12.80;80.10;;;;;;10960347;32;20041;-73
2022/11/26 15:34:00;;;;;;;2.97;1.50;;;12.60;80.60;;;;;;10941975;32;20184;-73
2022/11/26 15:40:10;;;;;;;2.70;1.55;;;12.40;80.90;;;;;;10941795;32;20053;-73
2022/11/26 15:46:26;;;;;;;3.45;1.42;;;12.20;81.10;;;;;;10941851;32;20081;-72
2022/11/26 15:52:31;;;;;;;2.53;1.62;;;12.10;81.40;;;;;;10928219;32;20425;-74
2022/11/26 15:58:38;;;;;;;5.32;2.85;;;12.00;81.70;;;;;;10937124;32;20027;-73
2022/11/26 16:04:49;;;;;;;3.92;1.83;;;11.80;81.80;;;;;;10940301;32;20026;-74
2022/11/26 16:11:22;;;;;;;4.95;2.40;;;11.80;82.00;;;;;;10927858;32;20023;-74
2022/11/26 16:17:24;;;;;;;5.97;2.60;;;11.70;82.10;;;;;;10927796;32;20034;-74
2022/11/26 16:23:28;;;;;;;3.92;2.28;;;11.60;82.30;;;;;;10960834;32;20023;-74
2022/11/26 16:29:32;;;;;;;4.97;2.42;;;11.50;82.30;;;;;;10978708;32;20410;-73
2022/11/26 16:35:34;;;;;;;5.70;3.28;;;11.50;82.50;;;;;;10980042;32;20058;-73
2022/11/26 16:41:37;;;;;;;6.45;3.35;;;11.40;82.50;;;;;;10985584;32;20038;-72
2022/11/26 16:47:46;;;;;;;5.05;3.42;;;11.30;82.60;;;;;;10985433;32;20019;-72
2022/11/26 16:53:48;;;;;;;5.27;3.20;;;11.30;82.70;;;;;;10985365;32;20022;-72
2022/11/26 16:59:58;;;;;;;6.32;4.12;;;11.20;82.90;;;;;;10985067;32;20023;-72
2022/11/26 17:06:05;;;;;;;7.03;4.25;;;11.10;83.00;;;;;;10984766;32;20049;-72
2022/11/26 17:12:19;;;;;;;9.05;5.72;;;11.10;83.10;;;;;;10984397;32;20041;-73
2022/11/26 17:18:23;;;;;;;7.90;5.50;;;11.00;83.20;;;;;;10971071;32;20061;-73
2022/11/26 17:24:26;;;;;;;6.80;5.10;;;11.00;83.50;;;;;;10984076;32;20049;-72
2022/11/26 17:30:50;;;;;;;6.97;4.12;;;10.90;83.50;;;;;;10983991;32;20034;-73
2022/11/26 17:37:27;;;;;;;8.15;5.28;;;10.80;83.40;;;;;;10982946;32;20430;-73
2022/11/26 17:43:29;;;;;;;8.60;5.75;;;10.70;83.40;;;;;;10983263;32;20030;-72
2022/11/26 17:49:31;;;;;;;8.18;5.87;;;10.70;83.60;;;;;;10982847;32;20308;-72
2022/11/26 17:55:33;;;;;;;9.82;6.25;;;10.70;83.60;;;;;;10983061;32;20057;-73
2022/11/26 18:01:35;;;;;;;8.98;5.32;;;10.60;83.50;;;;;;10969353;32;20031;-73
2022/11/26 18:08:07;;;;;;;16.23;11.25;;;10.60;83.70;;;;;;10981699;32;20049;-73
2022/11/26 18:14:10;;;;;;;12.30;7.57;;;10.40;84.00;;;;;;10982500;32;20023;-72
2022/11/26 18:20:12;;;;;;;14.32;8.00;;;10.20;84.30;;;;;;10977760;32;20429;-72
2022/11/26 18:26:18;;;;;;;13.07;8.95;;;10.30;84.40;;;;;;10981815;32;20382;-73
2022/11/26 18:32:20;;;;;;;16.75;10.52;;;10.30;84.50;;;;;;10981683;32;20053;-72
2022/11/26 18:38:27;;;;;;;13.80;8.60;;;10.30;84.60;;;;;;10977356;32;20031;-73
2022/11/26 18:44:29;;;;;;;12.57;9.25;;;10.30;84.60;;;;;;10981253;32;20039;-72
2022/11/26 18:50:32;;;;;;;17.02;11.95;;;10.30;84.60;;;;;;10981216;32;20023;-73
2022/11/26 18:56:34;;;;;;;15.05;9.63;;;10.20;84.20;;;;;;10981044;32;20038;-73
2022/11/26 19:02:36;;;;;;;14.10;9.63;;;10.20;84.10;;;;;;10966617;32;20317;-72
2022/11/26 19:08:39;;;;;;;14.43;11.25;;;10.20;84.40;;;;;;10965833;32;20027;-72
2022/11/26 19:14:41;;;;;;;15.98;10.68;;;10.20;84.50;;;;;;10980496;32;20045;-72
2022/11/26 19:20:58;;;;;;;16.00;11.43;;;10.10;84.70;;;;;;10980339;32;20089;-72
2022/11/26 19:27:00;;;;;;;16.08;11.15;;;10.10;84.80;;;;;;10980185;32;20049;-73
2022/11/26 19:33:03;;;;;;;13.00;10.93;;;10.10;84.90;;;;;;10979906;32;20026;-72
2022/11/26 19:39:07;;;;;;;18.42;12.95;;;10.10;84.90;;;;;;10979852;32;20022;-72
2022/11/26 19:45:10;;;;;;;15.73;12.13;;;10.00;84.90;;;;;;10965196;32;20395;-72
2022/11/26 19:51:16;;;;;;;15.38;10.70;;;9.90;84.90;;;;;;10975676;32;20540;-72
2022/11/26 19:57:19;;;;;;;15.48;12.37;;;9.90;84.80;;;;;;10979613;32;20363;-72
2022/11/26 20:03:23;;;;;;;19.37;13.95;;;9.80;85.10;;;;;;10979314;32;20026;-72
2022/11/26 20:09:25;;;;;;;20.85;14.02;;;9.70;85.30;;;;;;10980375;32;20022;-74
2022/11/26 20:15:29;;;;;;;16.10;11.12;;;9.70;85.50;;;;;;10986487;32;20065;-74
2022/11/26 20:21:49;;;;;;;19.48;14.70;;;9.60;85.70;;;;;;10972826;32;20349;-74
2022/11/26 20:28:03;;;;;;;15.95;11.07;;;9.60;85.70;;;;;;10972751;32;20288;-74
2022/11/26 20:34:05;;;;;;;16.85;11.35;;;9.60;85.70;;;;;;10983345;32;20057;-74
2022/11/26 20:40:10;;;;;;;20.35;11.93;;;9.50;85.70;;;;;;10971817;32;20026;-74
2022/11/26 20:46:23;;;;;;;;;;;9.60;85.50;;;;;;10998349;32;20034;-74
2022/11/26 20:52:30;;;;;;;13.35;10.98;;;9.50;85.20;;;;;;10984955;32;19925;-74
2022/11/26 20:58:35;;;;;;;17.58;12.63;;;9.50;85.30;;;;;;10984949;32;20383;-74
2022/11/26 21:05:15;;;;;;;21.75;11.60;;;9.40;85.10;;;;;;10980975;32;20073;-74
2022/11/26 21:11:17;;;;;;;16.23;12.35;;;9.30;84.80;;;;;;10984537;32;20022;-74
2022/11/26 21:17:20;;;;;;;21.08;14.18;;;9.20;84.80;;;;;;10984353;32;20034;-74
2022/11/26 21:23:22;;;;;;;16.15;12.20;;;9.20;84.70;;;;;;10983349;32;20022;-74
2022/11/26 21:29:25;;;;;;;13.40;11.80;;;9.10;84.60;;;;;;10983901;32;20203;-75
2022/11/26 21:35:28;;;;;;;14.73;11.38;;;9.00;84.60;;;;;;10984025;32;20066;-73
2022/11/26 21:41:32;;;;;;;14.90;11.57;;;8.80;84.90;;;;;;10970237;32;20023;-73
2022/11/26 21:47:35;;;;;;;16.73;11.05;;;8.70;85.00;;;;;;10983389;32;20307;-73
2022/11/26 21:53:37;;;;;;;14.45;11.20;;;8.60;85.10;;;;;;10983352;32;20061;-73
2022/11/26 21:59:39;;;;;;;16.15;11.65;;;8.70;85.00;;;;;;10978521;32;20018;-74
2022/11/26 22:05:42;;;;;;;15.63;11.63;;;8.80;84.70;;;;;;10982456;32;20049;-74
2022/11/26 22:11:45;;;;;;;17.67;10.90;;;8.70;84.60;;;;;;10982356;32;20014;-74
2022/11/26 22:17:47;;;;;;;22.80;20.37;;;8.70;84.50;;;;;;10978479;32;20023;-74
2022/11/26 22:23:50;;;;;;;18.20;14.15;;;8.70;84.60;;;;;;10968325;32;20023;-74
2022/11/26 22:29:52;;;;;;;21.00;16.35;;;8.60;84.60;;;;;;10981789;32;20038;-74
2022/11/26 22:35:53;;;;;;;18.30;15.40;;;8.50;85.20;;;;;;10968045;32;20050;-74
2022/11/26 22:41:55;;;;;;;18.17;13.23;;;8.60;85.40;;;;;;10981340;32;20318;-74
2022/11/26 22:47:57;;;;;;;15.43;11.48;;;8.70;85.10;;;;;;10989476;27;20064;-74
2022/11/26 22:54:03;;;;;;;16.95;13.45;;;8.70;84.90;;;;;;11019080;32;20096;-74
2022/11/26 23:00:10;;;;;;;18.00;13.68;;;8.50;84.80;;;;;;11005248;32;20065;-74
2022/11/26 23:06:14;;;;;;;17.73;11.85;;;8.50;84.70;;;;;;11016718;32;20023;-74
2022/11/26 23:12:16;;;;;;;17.98;14.52;;;8.50;84.60;;;;;;11018421;32;20045;-74
2022/11/26 23:18:18;;;;;;;14.75;10.18;;;8.40;84.50;;;;;;11018268;32;20048;-74
2022/11/26 23:24:20;;;;;;;15.75;11.93;;;8.40;84.30;;;;;;11018046;32;20053;-74
2022/11/26 23:30:22;;;;;;;14.05;9.73;;;8.30;84.20;;;;;;11018182;32;20045;-73
2022/11/26 23:36:26;;;;;;;15.02;10.85;;;8.20;84.10;;;;;;11004639;32;20014;-73
2022/11/26 23:42:28;;;;;;;20.92;14.15;;;8.10;84.20;;;;;;11017864;32;20064;-73
2022/11/26 23:48:39;;;;;;;17.42;12.48;;;8.20;84.20;;;;;;11015465;32;20045;-73
2022/11/26 23:54:42;;;;;;;15.95;12.63;;;8.20;84.00;;;;;;11030486;32;20030;-73
